createdAt,value
2022-08-22T00:00:24.189Z,93708.40
2022-08-22T00:01:47.145Z,93707.52
2022-08-22T00:02:42.335Z,93776.72
2022-08-22T00:02:47.029Z,93755.37
2022-08-22T00:02:52.803Z,93770.36
2022-08-22T00:02:55.896Z,93712.19
2022-08-22T00:02:58.023Z,93714.03
2022-08-22T00:02:59.904Z,93766.13
2022-08-22T00:03:00.233Z,93768.32
2022-08-22T00:03:08.440Z,93747.67
2022-08-22T00:03:10.809Z,93739.83
2022-08-22T00:03:28.961Z,93707.05
2022-08-22T00:04:48.957Z,93707.79
2022-08-22T00:06:14.161Z,93709.07
2022-08-22T00:07:19.087Z,93711.03
2022-08-22T00:08:28.242Z,93710.45
2022-08-22T00:09:31.858Z,93705.39
2022-08-22T00:10:40.683Z,93706.78
2022-08-22T00:11:49.403Z,93707.77
2022-08-22T00:12:52.445Z,93707.61
2022-08-22T00:14:15.647Z,93705.41
2022-08-22T00:15:42.464Z,93707.13
2022-08-22T00:16:51.724Z,93704.77
2022-08-22T00:18:03.014Z,93703.98
2022-08-22T00:19:17.165Z,93707.55
2022-08-22T00:20:39.141Z,93710.48
2022-08-22T00:21:44.156Z,93705.45
2022-08-22T00:22:59.388Z,93710.80
2022-08-22T00:24:25.799Z,93709.37
2022-08-22T00:25:42.654Z,93709.48
2022-08-22T00:26:46.723Z,93712.23
2022-08-22T00:28:10.119Z,93712.25
2022-08-22T00:29:15.586Z,93712.09
2022-08-22T00:30:19.993Z,93712.79
2022-08-22T00:31:26.609Z,93710.33
2022-08-22T00:32:39.740Z,93712.67
2022-08-22T00:33:47.020Z,93712.26
2022-08-22T00:35:17.224Z,93710.46
2022-08-22T00:36:31.230Z,93712.45
2022-08-22T00:37:57.135Z,93712.84
2022-08-22T00:39:03.024Z,93710.20
2022-08-22T00:40:09.116Z,93712.26
2022-08-22T00:41:23.511Z,93711.51
2022-08-22T00:42:37.614Z,93714.98
2022-08-22T00:44:01.353Z,93715.91
2022-08-22T00:45:17.654Z,93717.72
2022-08-22T00:46:23.487Z,93715.88
2022-08-22T00:47:36.501Z,93714.92
2022-08-22T00:48:42.505Z,93714.95
2022-08-22T00:50:04.399Z,93714.17
2022-08-22T00:51:19.818Z,93711.48
2022-08-22T00:52:41.605Z,93707.95
2022-08-22T00:53:46.764Z,93712.54
2022-08-22T00:54:50.124Z,93710.08
2022-08-22T00:55:53.147Z,93706.82
2022-08-22T00:57:11.383Z,93710.52
2022-08-22T00:58:14.983Z,93707.96
2022-08-22T00:59:29.936Z,93711.31
2022-08-22T01:00:39.663Z,93709.39
2022-08-22T01:02:05.636Z,93709.14
2022-08-22T01:03:08.898Z,93708.63
2022-08-22T01:04:22.112Z,93709.17
2022-08-22T01:05:25.149Z,93704.22
2022-08-22T01:06:28.143Z,93709.02
2022-08-22T01:07:43.446Z,93705.54
2022-08-22T01:09:05.274Z,93706.95
2022-08-22T01:10:14.863Z,93706.48
2022-08-22T01:11:27.195Z,93707.13
2022-08-22T01:12:46.048Z,93710.35
2022-08-22T01:14:18.818Z,93705.86
2022-08-22T01:15:27.160Z,93706.76
2022-08-22T01:16:48.673Z,93706.25
2022-08-22T01:18:05.069Z,93704.03
2022-08-22T01:19:27.039Z,93702.77
2022-08-22T01:20:47.620Z,93705.48
2022-08-22T01:22:29.363Z,93706.64
2022-08-22T01:23:50.915Z,93705.17
2022-08-22T01:25:21.913Z,93707.95
2022-08-22T01:26:40.640Z,93708.86
2022-08-22T01:28:01.632Z,93708.80
2022-08-22T01:29:35.873Z,93709.28
2022-08-22T01:30:43.762Z,93710.73
2022-08-22T01:31:49.680Z,93706.64
2022-08-22T01:32:59.353Z,93704.79
2022-08-22T01:34:21.227Z,93705.58
2022-08-22T01:35:42.584Z,93702.51
2022-08-22T01:36:53.250Z,93706.64
2022-08-22T01:37:59.385Z,93705.11
2022-08-22T01:39:02.647Z,93706.85
2022-08-22T01:40:18.566Z,93703.88
2022-08-22T01:41:22.960Z,93708.65
2022-08-22T01:42:25.937Z,93707.11
2022-08-22T01:43:59.548Z,93706.15
2022-08-22T01:45:23.334Z,93706.63
2022-08-22T01:46:34.134Z,93706.61
2022-08-22T01:47:37.923Z,93708.23
2022-08-22T01:48:56.593Z,93706.91
2022-08-22T01:50:17.849Z,93703.78
2022-08-22T01:51:39.862Z,93707.48
2022-08-22T01:52:47.979Z,93707.33
2022-08-22T01:53:57.897Z,93708.86
2022-08-22T01:55:10.818Z,93704.71
2022-08-22T01:56:18.569Z,93704.42
2022-08-22T01:57:23.035Z,93705.54
2022-08-22T01:58:28.477Z,93699.45
2022-08-22T01:59:42.608Z,93702.77
2022-08-22T02:00:58.071Z,93697.23
2022-08-22T02:02:20.502Z,93698.86
2022-08-22T02:03:27.828Z,93699.38
2022-08-22T02:04:42.718Z,93700.28
2022-08-22T02:06:21.062Z,93701.45
2022-08-22T02:07:49.981Z,93698.43
2022-08-22T02:09:20.362Z,93698.73
2022-08-22T02:10:38.784Z,93700.68
2022-08-22T02:11:50.429Z,93698.80
2022-08-22T02:12:56.073Z,93699.17
2022-08-22T02:14:03.620Z,93700.83
2022-08-22T02:15:15.188Z,93701.22
2022-08-22T02:16:20.871Z,93700.48
2022-08-22T02:17:29.288Z,93699.64
2022-08-22T02:18:42.311Z,93697.80
2022-08-22T02:19:48.926Z,93695.44
2022-08-22T02:21:04.250Z,93698.63
2022-08-22T02:22:28.412Z,93696.09
2022-08-22T02:23:37.228Z,93695.25
2022-08-22T02:25:01.000Z,93691.33
2022-08-22T02:26:13.906Z,93692.87
2022-08-22T02:27:24.905Z,93691.50
2022-08-22T02:28:57.335Z,93688.25
2022-08-22T02:30:15.777Z,93690.95
2022-08-22T02:31:23.428Z,93691.69
2022-08-22T02:32:46.878Z,93694.55
2022-08-22T02:33:54.054Z,93694.98
2022-08-22T02:35:03.743Z,93695.05
2022-08-22T02:36:23.148Z,93698.52
2022-08-22T02:37:35.348Z,93699.92
2022-08-22T02:38:48.999Z,93699.70
2022-08-22T02:40:11.135Z,93696.79
2022-08-22T02:41:22.983Z,93700.98
2022-08-22T02:42:38.220Z,93697.36
2022-08-22T02:43:53.069Z,93698.54
2022-08-22T02:45:00.897Z,93696.05
2022-08-22T02:46:24.294Z,93697.80
2022-08-22T02:47:32.718Z,93693.91
2022-08-22T02:48:48.864Z,93696.40
2022-08-22T02:50:13.733Z,93696.02
2022-08-22T02:51:24.517Z,93698.14
2022-08-22T02:52:50.742Z,93692.70
2022-08-22T02:54:02.294Z,93698.15
2022-08-22T02:55:15.925Z,93696.92
2022-08-22T02:56:22.519Z,93699.32
2022-08-22T02:57:39.314Z,93695.56
2022-08-22T02:58:42.448Z,93695.30
2022-08-22T03:00:06.040Z,93693.44
2022-08-22T03:01:29.975Z,93688.38
2022-08-22T03:02:37.239Z,93687.88
2022-08-22T03:03:45.185Z,93686.95
2022-08-22T03:04:55.183Z,93684.65
2022-08-22T03:06:01.589Z,93684.21
2022-08-22T03:07:11.853Z,93686.18
2022-08-22T03:08:21.818Z,93682.42
2022-08-22T03:09:35.369Z,93681.64
2022-08-22T03:10:41.903Z,93685.77
2022-08-22T03:11:51.353Z,93682.91
2022-08-22T03:13:17.442Z,93679.54
2022-08-22T03:14:28.366Z,93679.01
2022-08-22T03:15:34.408Z,93677.34
2022-08-22T03:16:58.542Z,93676.59
2022-08-22T03:18:20.046Z,93669.98
2022-08-22T03:19:28.923Z,93675.02
2022-08-22T03:20:44.249Z,93671.66
2022-08-22T03:22:06.955Z,93672.83
2022-08-22T03:23:24.275Z,93672.94
2022-08-22T03:24:27.218Z,93666.64
2022-08-22T03:25:34.064Z,93670.67
2022-08-22T03:26:58.788Z,93674.74
2022-08-22T03:28:21.863Z,93675.39
2022-08-22T03:29:30.943Z,93679.34
2022-08-22T03:30:37.044Z,93680.34
2022-08-22T03:31:49.344Z,93685.95
2022-08-22T03:32:52.914Z,93681.29
2022-08-22T03:34:14.749Z,93687.52
2022-08-22T03:35:23.839Z,93684.20
2022-08-22T03:36:28.664Z,93679.70
2022-08-22T03:37:40.873Z,93685.20
2022-08-22T03:38:56.472Z,93677.48
2022-08-22T03:40:18.494Z,93675.61
2022-08-22T03:41:24.618Z,93678.75
2022-08-22T03:42:46.244Z,93675.05
2022-08-22T03:43:55.508Z,93678.38
2022-08-22T03:45:07.024Z,93678.81
2022-08-22T03:46:13.099Z,93681.65
2022-08-22T03:47:20.838Z,93678.95
2022-08-22T03:48:44.103Z,93683.30
2022-08-22T03:50:11.234Z,93684.55
2022-08-22T03:51:21.524Z,93685.40
2022-08-22T03:53:03.193Z,93684.08
2022-08-22T03:54:15.083Z,93687.67
2022-08-22T03:55:30.907Z,93688.67
2022-08-22T03:56:33.919Z,93693.29
2022-08-22T03:57:55.660Z,93695.35
2022-08-22T03:58:58.845Z,93695.25
2022-08-22T04:00:10.383Z,93700.27
2022-08-22T04:01:33.745Z,93703.27
2022-08-22T04:02:44.246Z,93706.02
2022-08-22T04:04:07.152Z,93706.57
2022-08-22T04:05:34.037Z,93709.36
2022-08-22T04:07:28.320Z,93702.49
2022-08-22T04:08:55.809Z,93705.23
2022-08-22T04:10:07.494Z,93703.59
2022-08-22T04:11:19.293Z,93701.80
2022-08-22T04:12:22.320Z,93701.90
2022-08-22T04:13:43.700Z,93700.20
2022-08-22T04:15:08.447Z,93700.31
2022-08-22T04:16:25.234Z,93701.22
2022-08-22T04:17:43.966Z,93699.39
2022-08-22T04:19:11.576Z,93700.06
2022-08-22T04:20:26.571Z,93702.90
2022-08-22T04:21:29.539Z,93701.32
2022-08-22T04:22:51.456Z,93699.33
2022-08-22T04:24:09.439Z,93704.44
2022-08-22T04:25:17.447Z,93702.54
2022-08-22T04:26:26.493Z,93701.53
2022-08-22T04:27:34.940Z,93702.56
2022-08-22T04:28:40.256Z,93701.08
2022-08-22T04:29:47.264Z,93699.22
2022-08-22T04:30:53.269Z,93701.34
2022-08-22T04:32:19.576Z,93703.13
2022-08-22T04:33:26.775Z,93701.07
2022-08-22T04:34:36.051Z,93706.94
2022-08-22T04:35:43.311Z,93706.20
2022-08-22T04:36:50.958Z,93700.85
2022-08-22T04:37:59.031Z,93703.44
2022-08-22T04:39:05.333Z,93703.77
2022-08-22T04:40:24.674Z,93702.13
2022-08-22T04:41:28.443Z,93705.14
2022-08-22T04:42:35.518Z,93706.57
2022-08-22T04:43:46.990Z,93705.80
2022-08-22T04:44:49.932Z,93704.15
2022-08-22T04:46:05.342Z,93703.14
2022-08-22T04:47:20.712Z,93703.23
2022-08-22T04:48:35.579Z,93705.06
2022-08-22T04:49:43.897Z,93707.49
2022-08-22T04:50:56.913Z,93706.23
2022-08-22T04:52:12.379Z,93707.09
2022-08-22T04:53:15.457Z,93706.61
2022-08-22T04:54:31.199Z,93703.95
2022-08-22T04:55:47.225Z,93707.57
2022-08-22T04:56:53.437Z,93704.27
2022-08-22T04:58:09.118Z,93707.16
2022-08-22T04:59:16.516Z,93708.58
2022-08-22T05:00:19.638Z,93708.85
2022-08-22T05:01:41.424Z,93708.48
2022-08-22T05:02:49.358Z,93707.04
2022-08-22T05:03:58.740Z,93711.83
2022-08-22T05:05:13.228Z,93708.55
2022-08-22T05:06:19.293Z,93711.95
2022-08-22T05:07:27.024Z,93709.98
2022-08-22T05:08:39.899Z,93710.96
2022-08-22T05:09:45.862Z,93710.77
2022-08-22T05:10:50.628Z,93706.91
2022-08-22T05:11:55.708Z,93703.84
2022-08-22T05:13:02.216Z,93707.38
2022-08-22T05:14:27.563Z,93704.60
2022-08-22T05:15:36.808Z,93709.02
2022-08-22T05:16:42.356Z,93707.88
2022-08-22T05:17:47.391Z,93710.50
2022-08-22T05:18:55.422Z,93709.91
2022-08-22T05:20:02.361Z,93710.53
2022-08-22T05:21:08.144Z,93709.72
2022-08-22T05:22:19.447Z,93707.44
2022-08-22T05:23:36.182Z,93707.44
2022-08-22T05:24:42.593Z,93696.27
2022-08-22T05:25:48.775Z,93709.64
2022-08-22T05:26:53.939Z,93712.36
2022-08-22T05:28:20.928Z,93710.08
2022-08-22T05:29:27.340Z,93711.67
2022-08-22T05:30:31.574Z,93711.02
2022-08-22T05:31:39.354Z,93709.02
2022-08-22T05:32:52.170Z,93710.73
2022-08-22T05:33:58.690Z,93711.20
2022-08-22T05:35:02.483Z,93709.88
2022-08-22T05:36:11.158Z,93712.14
2022-08-22T05:37:25.542Z,93716.15
2022-08-22T05:38:31.956Z,93718.66
2022-08-22T05:39:37.131Z,93716.87
2022-08-22T05:40:41.120Z,93718.73
2022-08-22T05:41:45.009Z,93719.42
2022-08-22T05:42:51.338Z,93719.05
2022-08-22T05:43:55.068Z,93717.80
2022-08-22T05:44:58.220Z,93716.73
2022-08-22T05:46:01.618Z,93719.95
2022-08-22T05:47:04.921Z,93718.63
2022-08-22T05:48:12.405Z,93719.73
2022-08-22T05:49:22.615Z,93718.16
2022-08-22T05:50:31.748Z,93719.27
2022-08-22T05:51:34.940Z,93715.94
2022-08-22T05:53:00.265Z,93718.70
2022-08-22T05:54:21.876Z,93721.36
2022-08-22T05:55:37.138Z,93723.86
2022-08-22T05:56:44.174Z,93720.84
2022-08-22T05:57:52.486Z,93724.29
2022-08-22T05:59:03.095Z,93725.77
2022-08-22T06:00:13.319Z,93720.44
2022-08-22T06:01:33.868Z,93725.71
2022-08-22T06:02:56.294Z,93725.48
2022-08-22T06:04:25.794Z,93727.39
2022-08-22T06:05:32.038Z,93726.47
2022-08-22T06:06:40.878Z,93727.48
2022-08-22T06:07:46.725Z,93728.00
2022-08-22T06:08:56.318Z,93729.11
2022-08-22T06:10:02.411Z,93730.10
2022-08-22T06:11:33.661Z,93728.58
2022-08-22T06:12:43.466Z,93728.80
2022-08-22T06:14:08.328Z,93727.52
2022-08-22T06:15:12.102Z,93728.00
2022-08-22T06:16:17.213Z,93731.92
2022-08-22T06:17:41.543Z,93735.74
2022-08-22T06:18:45.428Z,93736.17
2022-08-22T06:19:49.905Z,93736.06
2022-08-22T06:20:55.569Z,93738.44
2022-08-22T06:21:58.895Z,93736.00
2022-08-22T06:23:03.126Z,93738.06
2022-08-22T06:24:08.819Z,93739.66
2022-08-22T06:25:14.110Z,93739.46
2022-08-22T06:26:20.463Z,93743.95
2022-08-22T06:27:34.419Z,93741.50
2022-08-22T06:28:55.670Z,93746.07
2022-08-22T06:30:00.742Z,93746.81
2022-08-22T06:31:06.403Z,93746.65
2022-08-22T06:32:15.168Z,93745.29
2022-08-22T06:33:23.102Z,93744.84
2022-08-22T06:34:34.628Z,93745.89
2022-08-22T06:35:59.842Z,93745.41
2022-08-22T06:37:04.814Z,93746.04
2022-08-22T06:38:08.426Z,93746.43
2022-08-22T06:39:30.333Z,93739.98
2022-08-22T06:40:33.890Z,93747.52
2022-08-22T06:41:41.674Z,93745.15
2022-08-22T06:42:48.137Z,93746.56
2022-08-22T06:43:54.905Z,93750.31
2022-08-22T06:45:02.828Z,93746.68
2022-08-22T06:46:07.695Z,93744.88
2022-08-22T06:47:13.797Z,93748.97
2022-08-22T06:48:18.542Z,93749.49
2022-08-22T06:49:23.559Z,93750.44
2022-08-22T06:50:34.534Z,93750.70
2022-08-22T06:51:38.915Z,93752.67
2022-08-22T06:52:57.803Z,93751.66
2022-08-22T06:54:03.809Z,93747.11
2022-08-22T06:55:08.581Z,93750.66
2022-08-22T06:56:22.414Z,93748.34
2022-08-22T06:57:37.606Z,93753.52
2022-08-22T06:58:46.144Z,93751.95
2022-08-22T06:59:49.747Z,93747.96
2022-08-22T07:01:05.658Z,93754.25
2022-08-22T07:02:30.154Z,93753.23
2022-08-22T07:03:41.550Z,93755.02
2022-08-22T07:04:44.813Z,93756.02
2022-08-22T07:05:49.625Z,93758.30
2022-08-22T07:06:54.671Z,93758.02
2022-08-22T07:07:58.170Z,93757.83
2022-08-22T07:09:05.743Z,93756.52
2022-08-22T07:10:12.998Z,93758.45
2022-08-22T07:11:18.772Z,93760.35
2022-08-22T07:12:23.469Z,93761.20
2022-08-22T07:13:28.552Z,93758.17
2022-08-22T07:14:38.749Z,93760.36
2022-08-22T07:15:51.105Z,93757.53
2022-08-22T07:16:56.585Z,93760.94
2022-08-22T07:18:01.371Z,93760.39
2022-08-22T07:19:04.718Z,93759.35
2022-08-22T07:20:23.574Z,93760.66
2022-08-22T07:21:28.314Z,93759.61
2022-08-22T07:22:35.276Z,93756.98
2022-08-22T07:23:40.812Z,93759.55
2022-08-22T07:24:47.608Z,93756.16
2022-08-22T07:25:58.355Z,93755.90
2022-08-22T07:27:09.007Z,93753.38
2022-08-22T07:28:22.363Z,93759.55
2022-08-22T07:30:00.623Z,93757.97
2022-08-22T07:31:17.899Z,93757.39
2022-08-22T07:32:25.543Z,93757.06
2022-08-22T07:33:39.770Z,93756.52
2022-08-22T07:35:04.534Z,93754.41
2022-08-22T07:36:29.589Z,93756.86
2022-08-22T07:37:53.113Z,93755.53
2022-08-22T07:39:17.547Z,93751.84
2022-08-22T07:40:48.581Z,93752.25
2022-08-22T07:42:00.641Z,93751.29
2022-08-22T07:43:10.753Z,93752.73
2022-08-22T07:44:19.148Z,93753.52
2022-08-22T07:45:32.247Z,93752.99
2022-08-22T07:47:04.731Z,93745.88
2022-08-22T07:48:29.052Z,93750.45
2022-08-22T07:49:37.615Z,93750.11
2022-08-22T07:50:46.227Z,93749.09
2022-08-22T07:52:01.854Z,93748.67
2022-08-22T07:53:19.082Z,93747.70
2022-08-22T07:54:43.279Z,93748.95
2022-08-22T07:55:49.478Z,93746.60
2022-08-22T07:56:56.874Z,93749.56
2022-08-22T07:58:04.324Z,93749.04
2022-08-22T07:59:13.220Z,93747.77
2022-08-22T08:00:18.551Z,93749.45
2022-08-22T08:01:22.934Z,93744.48
2022-08-22T08:02:26.209Z,93746.05
2022-08-22T08:03:30.707Z,93744.50
2022-08-22T08:04:40.058Z,93754.06
2022-08-22T08:05:45.234Z,93749.73
2022-08-22T08:06:50.929Z,93749.93
2022-08-22T08:07:54.902Z,93751.27
2022-08-22T08:08:59.896Z,93752.52
2022-08-22T08:10:12.483Z,93752.56
2022-08-22T08:11:17.399Z,93751.80
2022-08-22T08:12:33.447Z,93748.84
2022-08-22T08:13:42.502Z,93748.94
2022-08-22T08:14:48.762Z,93754.79
2022-08-22T08:15:52.279Z,93751.84
2022-08-22T08:17:01.404Z,93749.04
2022-08-22T08:18:09.188Z,93750.43
2022-08-22T08:19:12.998Z,93751.14
2022-08-22T08:20:17.841Z,93744.75
2022-08-22T08:21:42.879Z,93752.66
2022-08-22T08:22:46.535Z,93752.52
2022-08-22T08:23:49.784Z,93757.80
2022-08-22T08:24:55.563Z,93754.58
2022-08-22T08:26:11.821Z,93754.73
2022-08-22T08:27:36.989Z,93752.73
2022-08-22T08:28:44.421Z,93751.61
2022-08-22T08:30:15.607Z,93754.08
2022-08-22T08:31:30.530Z,93754.07
2022-08-22T08:32:35.308Z,93755.91
2022-08-22T08:33:41.108Z,93751.96
2022-08-22T08:34:44.661Z,93747.88
2022-08-22T08:36:02.735Z,93750.15
2022-08-22T08:37:13.810Z,93739.20
2022-08-22T08:38:19.108Z,93752.27
2022-08-22T08:39:35.099Z,93752.79
2022-08-22T08:40:44.474Z,93751.40
2022-08-22T08:41:54.752Z,93748.42
2022-08-22T08:43:31.038Z,93750.66
2022-08-22T08:44:46.233Z,93752.30
2022-08-22T08:46:08.233Z,93753.90
2022-08-22T08:47:17.004Z,93751.17
2022-08-22T08:48:25.888Z,93751.38
2022-08-22T08:49:50.632Z,93753.88
2022-08-22T08:51:06.023Z,93754.48
2022-08-22T08:52:09.158Z,93752.74
2022-08-22T08:53:51.371Z,93754.16
2022-08-22T08:54:57.460Z,93754.80
2022-08-22T08:56:15.622Z,93752.10
2022-08-22T08:57:45.729Z,93756.16
2022-08-22T08:59:00.585Z,93748.42
2022-08-22T09:00:14.594Z,93749.41
2022-08-22T09:02:42.632Z,93748.04
2022-08-22T09:04:02.583Z,93755.72
2022-08-22T09:05:19.577Z,93750.14
2022-08-22T09:06:42.590Z,93754.12
2022-08-22T09:08:11.671Z,93754.86
2022-08-22T09:09:29.541Z,93757.61
2022-08-22T09:10:35.379Z,93756.84
2022-08-22T09:12:01.763Z,93755.68
2022-08-22T09:13:20.049Z,93758.47
2022-08-22T09:14:41.467Z,93762.36
2022-08-22T09:16:05.517Z,93758.42
2022-08-22T09:17:08.764Z,93766.13
2022-08-22T09:18:53.293Z,93756.13
2022-08-22T09:20:19.481Z,93755.56
2022-08-22T09:21:30.563Z,93763.69
2022-08-22T09:22:58.635Z,93760.67
2022-08-22T09:24:21.268Z,93761.81
2022-08-22T09:25:29.652Z,93763.91
2022-08-22T09:26:57.080Z,93764.02
2022-08-22T09:28:13.989Z,93766.58
2022-08-22T09:29:35.587Z,93770.30
2022-08-22T09:31:21.932Z,93770.46
2022-08-22T09:32:33.913Z,93770.15
2022-08-22T09:33:51.836Z,93766.02
2022-08-22T09:34:57.112Z,93766.16
2022-08-22T09:36:12.227Z,93766.80
2022-08-22T09:37:24.068Z,93769.77
2022-08-22T09:38:47.902Z,93768.10
2022-08-22T09:39:57.936Z,93760.21
2022-08-22T09:40:16.149Z,93748.09
2022-08-22T09:41:20.620Z,93766.28
2022-08-22T09:42:23.758Z,93763.67
2022-08-22T09:43:36.771Z,93766.39
2022-08-22T09:44:40.782Z,93767.39
2022-08-22T09:46:07.067Z,93766.09
2022-08-22T09:47:24.562Z,93770.04
2022-08-22T09:48:36.708Z,93767.76
2022-08-22T09:49:50.563Z,93761.81
2022-08-22T09:51:13.557Z,93763.20
2022-08-22T09:52:35.712Z,93761.95
2022-08-22T09:53:45.709Z,93760.57
2022-08-22T09:55:02.439Z,93762.82
2022-08-22T09:56:20.993Z,93763.22
2022-08-22T09:57:41.290Z,93760.48
2022-08-22T09:58:58.002Z,93757.96
2022-08-22T10:00:04.076Z,93755.19
2022-08-22T10:01:16.415Z,93754.02
2022-08-22T10:02:25.403Z,93751.52
2022-08-22T10:03:47.751Z,93756.53
2022-08-22T10:04:53.913Z,93754.69
2022-08-22T10:06:02.388Z,93752.56
2022-08-22T10:07:12.179Z,93750.21
2022-08-22T10:08:38.763Z,93754.04
2022-08-22T10:09:48.968Z,93752.45
2022-08-22T10:11:08.287Z,93755.23
2022-08-22T10:12:13.282Z,93754.20
2022-08-22T10:13:19.320Z,93754.83
2022-08-22T10:14:52.681Z,93754.56
2022-08-22T10:15:59.703Z,93752.49
2022-08-22T10:17:21.905Z,93755.33
2022-08-22T10:18:37.623Z,93759.63
2022-08-22T10:19:53.133Z,93758.73
2022-08-22T10:20:56.090Z,93759.80
2022-08-22T10:22:10.138Z,93760.86
2022-08-22T10:23:13.232Z,93765.98
2022-08-22T10:24:49.898Z,93766.41
2022-08-22T10:25:57.149Z,93765.48
2022-08-22T10:27:06.371Z,93771.55
2022-08-22T10:28:10.604Z,93769.89
2022-08-22T10:29:32.709Z,93769.88
2022-08-22T10:30:55.083Z,93765.09
2022-08-22T10:32:02.848Z,93770.93
2022-08-22T10:33:09.149Z,93768.41
2022-08-22T10:34:20.648Z,93767.30
2022-08-22T10:35:28.973Z,93765.63
2022-08-22T10:36:46.348Z,93768.65
2022-08-22T10:37:55.198Z,93765.94
2022-08-22T10:39:00.330Z,93769.08
2022-08-22T10:40:13.404Z,93773.55
2022-08-22T10:41:16.584Z,93773.14
2022-08-22T10:42:59.465Z,93775.71
2022-08-22T10:44:17.695Z,93777.14
2022-08-22T10:45:36.930Z,93779.67
2022-08-22T10:46:52.282Z,93777.13
2022-08-22T10:47:58.200Z,93780.08
2022-08-22T10:49:08.058Z,93777.64
2022-08-22T10:50:20.158Z,93780.90
2022-08-22T10:51:36.705Z,93779.41
2022-08-22T10:52:46.100Z,93777.33
2022-08-22T10:53:56.148Z,93777.13
2022-08-22T10:55:14.817Z,93780.42
2022-08-22T10:56:21.704Z,93775.40
2022-08-22T10:57:43.205Z,93779.02
2022-08-22T10:58:46.284Z,93780.23
2022-08-22T10:59:52.162Z,93777.77
2022-08-22T11:01:00.236Z,93777.06
2022-08-22T11:02:18.815Z,93780.30
2022-08-22T11:03:29.019Z,93775.38
2022-08-22T11:04:38.958Z,93779.11
2022-08-22T11:05:43.690Z,93771.98
2022-08-22T11:07:13.369Z,93781.06
2022-08-22T11:08:22.344Z,93782.31
2022-08-22T11:09:30.292Z,93782.45
2022-08-22T11:10:59.245Z,93777.31
2022-08-22T11:12:04.403Z,93779.08
2022-08-22T11:13:07.832Z,93777.90
2022-08-22T11:14:13.708Z,93782.73
2022-08-22T11:15:26.234Z,93779.07
2022-08-22T11:16:54.969Z,93777.56
2022-08-22T11:18:12.903Z,93775.19
2022-08-22T11:19:26.469Z,93773.94
2022-08-22T11:20:48.590Z,93770.20
2022-08-22T11:22:10.598Z,93772.77
2022-08-22T11:23:22.845Z,93774.70
2022-08-22T11:24:35.285Z,93777.51
2022-08-22T11:25:41.486Z,93774.08
2022-08-22T11:26:50.134Z,93771.71
2022-08-22T11:27:53.627Z,93772.14
2022-08-22T11:29:22.702Z,93771.14
2022-08-22T11:30:31.724Z,93772.80
2022-08-22T11:31:47.286Z,93772.92
2022-08-22T11:33:13.759Z,93778.39
2022-08-22T11:34:32.074Z,93779.67
2022-08-22T11:35:49.853Z,93781.41
2022-08-22T11:36:56.755Z,93777.48
2022-08-22T11:38:03.060Z,93770.58
2022-08-22T11:39:19.420Z,93780.89
2022-08-22T11:40:34.378Z,93782.50
2022-08-22T11:41:40.345Z,93785.27
2022-08-22T11:42:49.437Z,93783.70
2022-08-22T11:43:59.605Z,93788.89
2022-08-22T11:45:07.452Z,93791.96
2022-08-22T11:46:19.794Z,93790.84
2022-08-22T11:47:27.136Z,93793.05
2022-08-22T11:48:37.709Z,93791.97
2022-08-22T11:49:46.702Z,93790.73
2022-08-22T11:50:59.716Z,93795.15
2022-08-22T11:52:06.944Z,93793.45
2022-08-22T11:53:25.405Z,93798.35
2022-08-22T11:54:59.398Z,93797.51
2022-08-22T11:56:20.691Z,93797.20
2022-08-22T11:57:47.336Z,93799.30
2022-08-22T11:59:01.513Z,93804.42
2022-08-22T12:00:05.959Z,93802.79
2022-08-22T12:01:17.523Z,93804.36
2022-08-22T12:02:21.547Z,93801.12
2022-08-22T12:03:24.549Z,93799.73
2022-08-22T12:04:32.822Z,93802.42
2022-08-22T12:05:43.305Z,93801.69
2022-08-22T12:06:50.307Z,93802.79
2022-08-22T12:07:56.861Z,93806.38
2022-08-22T12:09:21.307Z,93807.65
2022-08-22T12:10:30.281Z,93800.35
2022-08-22T12:11:44.904Z,93804.33
2022-08-22T12:12:48.730Z,93806.73
2022-08-22T12:14:06.129Z,93806.48
2022-08-22T12:15:21.577Z,93802.85
2022-08-22T12:16:37.817Z,93805.23
2022-08-22T12:17:55.250Z,93805.72
2022-08-22T12:19:09.428Z,93807.52
2022-08-22T12:20:17.167Z,93806.77
2022-08-22T12:21:40.787Z,93804.39
2022-08-22T12:22:56.509Z,93804.20
2022-08-22T12:24:26.217Z,93804.63
2022-08-22T12:25:32.556Z,93807.08
2022-08-22T12:27:08.267Z,93801.92
2022-08-22T12:28:29.787Z,93801.16
2022-08-22T12:29:55.939Z,93802.23
2022-08-22T12:31:17.022Z,93801.88
2022-08-22T12:32:27.799Z,93804.16
2022-08-22T12:33:39.794Z,93802.98
2022-08-22T12:34:51.785Z,93803.82
2022-08-22T12:36:17.868Z,93804.32
2022-08-22T12:37:44.908Z,93806.64
2022-08-22T12:39:04.479Z,93804.30
2022-08-22T12:40:13.812Z,93803.67
2022-08-22T12:41:27.979Z,93806.00
2022-08-22T12:42:41.929Z,93804.77
2022-08-22T12:43:49.486Z,93799.27
2022-08-22T12:45:05.127Z,93803.34
2022-08-22T12:46:13.387Z,93803.77
2022-08-22T12:47:25.481Z,93801.91
2022-08-22T12:48:47.601Z,93800.70
2022-08-22T12:49:59.125Z,93802.98
2022-08-22T12:51:18.325Z,93800.38
2022-08-22T12:52:30.220Z,93801.28
2022-08-22T12:53:33.206Z,93798.50
2022-08-22T12:54:43.978Z,93803.17
2022-08-22T12:55:49.853Z,93801.12
2022-08-22T12:57:05.346Z,93800.21
2022-08-22T12:58:36.577Z,93802.19
2022-08-22T12:59:43.432Z,93800.27
2022-08-22T13:00:48.709Z,93800.01
2022-08-22T13:01:56.926Z,93803.77
2022-08-22T13:03:02.969Z,93804.02
2022-08-22T13:04:12.897Z,93805.55
2022-08-22T13:05:40.566Z,93807.67
2022-08-22T13:06:51.619Z,93808.66
2022-08-22T13:08:01.209Z,93807.39
2022-08-22T13:09:18.806Z,93807.85
2022-08-22T13:10:38.313Z,93808.79
2022-08-22T13:11:42.871Z,93811.40
2022-08-22T13:12:47.894Z,93810.69
2022-08-22T13:13:56.729Z,93815.45
2022-08-22T13:15:22.136Z,93813.62
2022-08-22T13:16:34.908Z,93815.39
2022-08-22T13:17:43.384Z,93817.94
2022-08-22T13:19:13.434Z,93815.80
2022-08-22T13:20:37.029Z,93819.83
2022-08-22T13:21:44.106Z,93814.80
2022-08-22T13:22:48.016Z,93815.62
2022-08-22T13:23:56.259Z,93819.17
2022-08-22T13:24:59.211Z,93817.58
2022-08-22T13:26:02.306Z,93807.91
2022-08-22T13:27:22.564Z,93819.20
2022-08-22T13:28:27.392Z,93818.88
2022-08-22T13:29:42.851Z,93813.96
2022-08-22T13:30:46.690Z,93817.63
2022-08-22T13:31:53.201Z,93816.66
2022-08-22T13:33:11.026Z,93815.81
2022-08-22T13:34:34.833Z,93817.27
2022-08-22T13:35:51.832Z,93813.13
2022-08-22T13:36:58.768Z,93818.81
2022-08-22T13:38:07.253Z,93816.20
2022-08-22T13:39:15.354Z,93817.36
2022-08-22T13:40:27.617Z,93814.91
2022-08-22T13:41:38.248Z,93819.41
2022-08-22T13:42:49.361Z,93815.86
2022-08-22T13:43:59.904Z,93816.65
2022-08-22T13:45:05.367Z,93818.88
2022-08-22T13:46:10.947Z,93812.67
2022-08-22T13:47:16.074Z,93815.55
2022-08-22T13:48:22.590Z,93815.70
2022-08-22T13:49:39.889Z,93816.28
2022-08-22T13:51:01.116Z,93814.62
2022-08-22T13:52:29.090Z,93812.55
2022-08-22T13:53:41.569Z,93815.94
2022-08-22T13:54:52.208Z,93812.86
2022-08-22T13:56:00.044Z,93811.73
2022-08-22T13:57:23.972Z,93813.42
2022-08-22T13:58:42.278Z,93811.89
2022-08-22T14:00:06.272Z,93811.63
2022-08-22T14:01:20.333Z,93811.36
2022-08-22T14:02:30.777Z,93810.14
2022-08-22T14:03:39.782Z,93809.55
2022-08-22T14:04:44.220Z,93809.13
2022-08-22T14:05:53.201Z,93808.02
2022-08-22T14:06:59.259Z,93812.84
2022-08-22T14:08:20.455Z,93808.40
2022-08-22T14:09:38.824Z,93811.15